sensor_id;sensor_type;location;lat;lon;timestamp;temperature;humidity
2130;DHT22;1071;52.544;13.374;2023-11-21T00:02:25;11.00;99.90
2130;DHT22;1071;52.544;13.374;2023-11-21T00:04:52;10.90;99.90
2130;DHT22;1071;52.544;13.374;2023-11-21T00:07:19;10.90;99.90
2130;DHT22;1071;52.544;13.374;2023-11-21T00:09:47;10.90;99.90
2130;DHT22;1071;52.544;13.374;2023-11-21T00:12:14;10.90;99.90
2130;DHT22;1071;52.544;13.374;2023-11-21T00:14:42;10.80;99.90
2130;DHT22;1071;52.544;13.374;2023-11-21T00:17:12;10.70;99.90
2130;DHT22;1071;52.544;13.374;2023-11-21T00:19:39;10.60;99.90
2130;DHT22;1071;52.544;13.374;2023-11-21T00:22:06;10.50;99.90
2130;DHT22;1071;52.544;13.374;2023-11-21T00:24:33;10.40;99.90
2130;DHT22;1071;52.544;13.374;2023-11-21T00:27:00;10.40;99.90
2130;DHT22;1071;52.544;13.374;2023-11-21T00:29:27;10.50;99.90
2130;DHT22;1071;52.544;13.374;2023-11-21T00:31:55;10.40;99.90
2130;DHT22;1071;52.544;13.374;2023-11-21T00:34:22;10.40;99.90
2130;DHT22;1071;52.544;13.374;2023-11-21T00:36:49;10.30;99.90
2130;DHT22;1071;52.544;13.374;2023-11-21T00:39:16;10.30;99.90
2130;DHT22;1071;52.544;13.374;2023-11-21T00:41:42;10.20;99.90
2130;DHT22;1071;52.544;13.374;2023-11-21T00:44:10;10.20;99.90
2130;DHT22;1071;52.544;13.374;2023-11-21T00:46:37;10.20;99.90
2130;DHT22;1071;52.544;13.374;2023-11-21T00:49:05;10.10;99.90
2130;DHT22;1071;52.544;13.374;2023-11-21T00:51:33;10.10;99.90
2130;DHT22;1071;52.544;13.374;2023-11-21T00:54:00;10.10;99.90
2130;DHT22;1071;52.544;13.374;2023-11-21T00:56:27;10.00;99.90
2130;DHT22;1071;52.544;13.374;2023-11-21T00:58:54;10.00;99.90
2130;DHT22;1071;52.544;13.374;2023-11-21T01:01:21;10.00;99.90
2130;DHT22;1071;52.544;13.374;2023-11-21T01:03:50;9.90;99.90
2130;DHT22;1071;52.544;13.374;2023-11-21T01:06:19;10.00;99.90
2130;DHT22;1071;52.544;13.374;2023-11-21T01:08:46;10.00;99.90
2130;DHT22;1071;52.544;13.374;2023-11-21T01:11:13;10.00;99.90
2130;DHT22;1071;52.544;13.374;2023-11-21T01:13:41;10.00;99.90
2130;DHT22;1071;52.544;13.374;2023-11-21T01:16:16;10.00;99.90
2130;DHT22;1071;52.544;13.374;2023-11-21T01:18:43;10.00;99.90
2130;DHT22;1071;52.544;13.374;2023-11-21T01:21:10;10.00;99.90
2130;DHT22;1071;52.544;13.374;2023-11-21T01:23:38;10.00;99.90
2130;DHT22;1071;52.544;13.374;2023-11-21T01:26:06;9.90;99.90
2130;DHT22;1071;52.544;13.374;2023-11-21T01:28:34;9.90;99.90
2130;DHT22;1071;52.544;13.374;2023-11-21T01:31:02;9.90;99.90
2130;DHT22;1071;52.544;13.374;2023-11-21T01:33:29;9.80;99.90
2130;DHT22;1071;52.544;13.374;2023-11-21T01:35:56;9.80;99.90
2130;DHT22;1071;52.544;13.374;2023-11-21T01:38:23;9.80;99.90
2130;DHT22;1071;52.544;13.374;2023-11-21T01:40:51;9.80;99.90
2130;DHT22;1071;52.544;13.374;2023-11-21T01:43:21;9.80;99.90
2130;DHT22;1071;52.544;13.374;2023-11-21T01:45:48;9.80;99.90
2130;DHT22;1071;52.544;13.374;2023-11-21T01:48:15;9.70;99.90
2130;DHT22;1071;52.544;13.374;2023-11-21T01:50:43;9.70;99.90
2130;DHT22;1071;52.544;13.374;2023-11-21T01:53:11;9.70;99.90
2130;DHT22;1071;52.544;13.374;2023-11-21T01:55:40;9.70;99.90
2130;DHT22;1071;52.544;13.374;2023-11-21T01:58:09;9.70;99.90
2130;DHT22;1071;52.544;13.374;2023-11-21T02:00:37;9.70;99.90
2130;DHT22;1071;52.544;13.374;2023-11-21T02:03:04;9.70;99.90
2130;DHT22;1071;52.544;13.374;2023-11-21T02:05:32;9.60;99.90
2130;DHT22;1071;52.544;13.374;2023-11-21T02:07:59;9.70;99.90
2130;DHT22;1071;52.544;13.374;2023-11-21T02:10:26;9.70;99.90
2130;DHT22;1071;52.544;13.374;2023-11-21T02:12:53;9.70;99.90
2130;DHT22;1071;52.544;13.374;2023-11-21T02:15:22;9.70;99.90
2130;DHT22;1071;52.544;13.374;2023-11-21T02:17:54;9.70;99.90
2130;DHT22;1071;52.544;13.374;2023-11-21T02:20:24;9.60;99.90
2130;DHT22;1071;52.544;13.374;2023-11-21T02:22:54;9.60;99.90
2130;DHT22;1071;52.544;13.374;2023-11-21T02:25:23;9.60;99.90
2130;DHT22;1071;52.544;13.374;2023-11-21T02:27:50;9.60;99.90
2130;DHT22;1071;52.544;13.374;2023-11-21T02:30:17;9.60;99.90
2130;DHT22;1071;52.544;13.374;2023-11-21T02:32:44;9.60;99.90
2130;DHT22;1071;52.544;13.374;2023-11-21T02:35:14;9.60;99.90
2130;DHT22;1071;52.544;13.374;2023-11-21T02:37:41;9.60;99.90
2130;DHT22;1071;52.544;13.374;2023-11-21T02:40:11;9.60;99.90
2130;DHT22;1071;52.544;13.374;2023-11-21T02:42:39;9.60;99.90
2130;DHT22;1071;52.544;13.374;2023-11-21T02:45:07;9.50;99.90
2130;DHT22;1071;52.544;13.374;2023-11-21T02:47:34;9.50;99.90
2130;DHT22;1071;52.544;13.374;2023-11-21T02:50:01;9.50;99.90
2130;DHT22;1071;52.544;13.374;2023-11-21T02:52:29;9.50;99.90
2130;DHT22;1071;52.544;13.374;2023-11-21T02:54:58;9.50;99.90
2130;DHT22;1071;52.544;13.374;2023-11-21T02:57:26;9.50;99.90
2130;DHT22;1071;52.544;13.374;2023-11-21T02:59:53;9.50;99.90
2130;DHT22;1071;52.544;13.374;2023-11-21T03:02:20;9.50;99.90
2130;DHT22;1071;52.544;13.374;2023-11-21T03:04:47;9.50;99.90
2130;DHT22;1071;52.544;13.374;2023-11-21T03:07:14;9.40;99.90
2130;DHT22;1071;52.544;13.374;2023-11-21T03:09:41;9.40;99.90
2130;DHT22;1071;52.544;13.374;2023-11-21T03:12:10;9.40;99.90
2130;DHT22;1071;52.544;13.374;2023-11-21T03:14:42;9.40;99.90
2130;DHT22;1071;52.544;13.374;2023-11-21T03:17:08;9.30;99.90
2130;DHT22;1071;52.544;13.374;2023-11-21T03:19:36;9.30;99.90
2130;DHT22;1071;52.544;13.374;2023-11-21T03:22:04;9.40;99.90
2130;DHT22;1071;52.544;13.374;2023-11-21T03:24:30;9.40;99.90
2130;DHT22;1071;52.544;13.374;2023-11-21T03:26:57;9.40;99.90
2130;DHT22;1071;52.544;13.374;2023-11-21T03:29:25;9.40;99.90
2130;DHT22;1071;52.544;13.374;2023-11-21T03:31:54;9.40;99.90
2130;DHT22;1071;52.544;13.374;2023-11-21T03:34:24;9.40;99.90
2130;DHT22;1071;52.544;13.374;2023-11-21T03:36:51;9.40;99.90
2130;DHT22;1071;52.544;13.374;2023-11-21T03:39:19;9.30;99.90
2130;DHT22;1071;52.544;13.374;2023-11-21T03:41:47;9.30;99.90
2130;DHT22;1071;52.544;13.374;2023-11-21T03:44:14;9.30;99.90
2130;DHT22;1071;52.544;13.374;2023-11-21T03:46:42;9.30;99.90
2130;DHT22;1071;52.544;13.374;2023-11-21T03:49:10;9.20;99.90
2130;DHT22;1071;52.544;13.374;2023-11-21T03:51:37;9.20;99.90
2130;DHT22;1071;52.544;13.374;2023-11-21T03:54:05;9.20;99.90
2130;DHT22;1071;52.544;13.374;2023-11-21T03:56:36;9.20;99.90
2130;DHT22;1071;52.544;13.374;2023-11-21T03:59:03;9.20;99.90
2130;DHT22;1071;52.544;13.374;2023-11-21T04:01:30;9.20;99.90
2130;DHT22;1071;52.544;13.374;2023-11-21T04:03:57;9.20;99.90
2130;DHT22;1071;52.544;13.374;2023-11-21T04:06:25;9.20;99.90
2130;DHT22;1071;52.544;13.374;2023-11-21T04:08:52;9.20;99.90
2130;DHT22;1071;52.544;13.374;2023-11-21T04:11:19;9.20;99.90
2130;DHT22;1071;52.544;13.374;2023-11-21T04:13:46;9.20;99.90
2130;DHT22;1071;52.544;13.374;2023-11-21T04:16:13;9.10;99.90
2130;DHT22;1071;52.544;13.374;2023-11-21T04:18:40;9.10;99.90
2130;DHT22;1071;52.544;13.374;2023-11-21T04:21:08;9.10;99.90
2130;DHT22;1071;52.544;13.374;2023-11-21T04:23:36;9.10;99.90
2130;DHT22;1071;52.544;13.374;2023-11-21T04:26:03;9.10;99.90
2130;DHT22;1071;52.544;13.374;2023-11-21T04:28:30;9.00;99.90
2130;DHT22;1071;52.544;13.374;2023-11-21T04:30:57;9.00;99.90
2130;DHT22;1071;52.544;13.374;2023-11-21T04:33:24;9.00;99.90
2130;DHT22;1071;52.544;13.374;2023-11-21T04:35:51;9.10;99.90
2130;DHT22;1071;52.544;13.374;2023-11-21T04:38:18;9.00;99.90
2130;DHT22;1071;52.544;13.374;2023-11-21T04:40:47;9.00;99.90
2130;DHT22;1071;52.544;13.374;2023-11-21T04:43:13;9.00;99.90
2130;DHT22;1071;52.544;13.374;2023-11-21T04:45:41;9.00;99.90
2130;DHT22;1071;52.544;13.374;2023-11-21T04:48:08;9.10;99.90
2130;DHT22;1071;52.544;13.374;2023-11-21T04:50:37;9.10;99.90
2130;DHT22;1071;52.544;13.374;2023-11-21T04:53:04;9.00;99.90
2130;DHT22;1071;52.544;13.374;2023-11-21T04:55:31;9.00;99.90
2130;DHT22;1071;52.544;13.374;2023-11-21T04:57:59;9.00;99.90
2130;DHT22;1071;52.544;13.374;2023-11-21T05:00:26;9.00;99.90
2130;DHT22;1071;52.544;13.374;2023-11-21T05:02:53;9.00;99.90
2130;DHT22;1071;52.544;13.374;2023-11-21T05:05:20;9.00;99.90
2130;DHT22;1071;52.544;13.374;2023-11-21T05:07:47;9.00;99.90
2130;DHT22;1071;52.544;13.374;2023-11-21T05:10:14;8.90;99.90
2130;DHT22;1071;52.544;13.374;2023-11-21T05:12:42;8.90;99.90
2130;DHT22;1071;52.544;13.374;2023-11-21T05:15:14;8.90;99.90
2130;DHT22;1071;52.544;13.374;2023-11-21T05:17:41;8.90;99.90
2130;DHT22;1071;52.544;13.374;2023-11-21T05:20:10;8.90;99.90
2130;DHT22;1071;52.544;13.374;2023-11-21T05:22:38;9.00;99.90
2130;DHT22;1071;52.544;13.374;2023-11-21T05:25:06;9.00;99.90
2130;DHT22;1071;52.544;13.374;2023-11-21T05:27:34;9.00;99.90
2130;DHT22;1071;52.544;13.374;2023-11-21T05:30:01;9.00;99.90
2130;DHT22;1071;52.544;13.374;2023-11-21T05:32:32;8.90;99.90
2130;DHT22;1071;52.544;13.374;2023-11-21T05:34:59;8.90;99.90
2130;DHT22;1071;52.544;13.374;2023-11-21T05:37:26;8.90;99.90
2130;DHT22;1071;52.544;13.374;2023-11-21T05:39:53;8.90;99.90
2130;DHT22;1071;52.544;13.374;2023-11-21T05:42:22;8.80;99.90
2130;DHT22;1071;52.544;13.374;2023-11-21T05:44:49;8.80;99.90
2130;DHT22;1071;52.544;13.374;2023-11-21T05:47:16;8.80;99.90
2130;DHT22;1071;52.544;13.374;2023-11-21T05:49:44;8.80;99.90
2130;DHT22;1071;52.544;13.374;2023-11-21T05:52:15;8.80;99.90
2130;DHT22;1071;52.544;13.374;2023-11-21T05:54:42;8.70;99.90
2130;DHT22;1071;52.544;13.374;2023-11-21T05:57:09;8.70;99.90
2130;DHT22;1071;52.544;13.374;2023-11-21T05:59:36;8.70;99.90
2130;DHT22;1071;52.544;13.374;2023-11-21T06:02:04;8.70;99.90
2130;DHT22;1071;52.544;13.374;2023-11-21T06:04:30;8.70;99.90
2130;DHT22;1071;52.544;13.374;2023-11-21T06:06:59;8.70;99.90
2130;DHT22;1071;52.544;13.374;2023-11-21T06:09:27;8.70;99.90
2130;DHT22;1071;52.544;13.374;2023-11-21T06:11:54;8.70;99.90
2130;DHT22;1071;52.544;13.374;2023-11-21T06:14:20;8.60;99.90
2130;DHT22;1071;52.544;13.374;2023-11-21T06:16:47;8.60;99.90
2130;DHT22;1071;52.544;13.374;2023-11-21T06:19:18;8.60;99.90
2130;DHT22;1071;52.544;13.374;2023-11-21T06:21:45;8.60;99.90
2130;DHT22;1071;52.544;13.374;2023-11-21T06:24:14;8.60;99.90
2130;DHT22;1071;52.544;13.374;2023-11-21T06:26:42;8.50;99.90
2130;DHT22;1071;52.544;13.374;2023-11-21T06:29:09;8.60;99.90
2130;DHT22;1071;52.544;13.374;2023-11-21T06:31:37;8.50;99.90
2130;DHT22;1071;52.544;13.374;2023-11-21T06:34:06;8.50;99.90
2130;DHT22;1071;52.544;13.374;2023-11-21T06:36:34;8.50;99.90
2130;DHT22;1071;52.544;13.374;2023-11-21T06:39:01;8.60;99.90
2130;DHT22;1071;52.544;13.374;2023-11-21T06:41:33;8.50;99.90
2130;DHT22;1071;52.544;13.374;2023-11-21T06:44:00;8.50;99.90
2130;DHT22;1071;52.544;13.374;2023-11-21T06:46:28;8.50;99.90
2130;DHT22;1071;52.544;13.374;2023-11-21T06:48:55;8.50;99.90
2130;DHT22;1071;52.544;13.374;2023-11-21T06:51:21;8.60;99.90
2130;DHT22;1071;52.544;13.374;2023-11-21T06:53:49;8.50;99.90
2130;DHT22;1071;52.544;13.374;2023-11-21T06:56:16;8.50;99.90
2130;DHT22;1071;52.544;13.374;2023-11-21T06:58:46;8.50;99.90
2130;DHT22;1071;52.544;13.374;2023-11-21T07:01:13;8.50;99.90
2130;DHT22;1071;52.544;13.374;2023-11-21T07:03:40;8.60;99.90
2130;DHT22;1071;52.544;13.374;2023-11-21T07:06:08;8.50;99.90
2130;DHT22;1071;52.544;13.374;2023-11-21T07:08:36;8.60;99.90
2130;DHT22;1071;52.544;13.374;2023-11-21T07:11:03;8.60;99.90
2130;DHT22;1071;52.544;13.374;2023-11-21T07:13:30;8.50;99.90
2130;DHT22;1071;52.544;13.374;2023-11-21T07:15:59;8.50;99.90
2130;DHT22;1071;52.544;13.374;2023-11-21T07:18:26;8.50;99.90
2130;DHT22;1071;52.544;13.374;2023-11-21T07:21:00;8.50;99.90
2130;DHT22;1071;52.544;13.374;2023-11-21T07:23:28;8.60;99.90
2130;DHT22;1071;52.544;13.374;2023-11-21T07:26:00;8.60;99.90
2130;DHT22;1071;52.544;13.374;2023-11-21T07:28:29;8.60;99.90
2130;DHT22;1071;52.544;13.374;2023-11-21T07:30:56;8.60;99.90
2130;DHT22;1071;52.544;13.374;2023-11-21T07:33:26;8.60;99.90
2130;DHT22;1071;52.544;13.374;2023-11-21T07:35:53;8.60;99.90
2130;DHT22;1071;52.544;13.374;2023-11-21T07:38:20;8.60;99.90
2130;DHT22;1071;52.544;13.374;2023-11-21T07:40:47;8.60;99.90
2130;DHT22;1071;52.544;13.374;2023-11-21T07:43:14;8.60;99.90
2130;DHT22;1071;52.544;13.374;2023-11-21T07:45:41;8.60;99.90
2130;DHT22;1071;52.544;13.374;2023-11-21T07:48:09;8.60;99.90
2130;DHT22;1071;52.544;13.374;2023-11-21T07:50:37;8.60;99.90
2130;DHT22;1071;52.544;13.374;2023-11-21T07:53:07;8.60;99.90
2130;DHT22;1071;52.544;13.374;2023-11-21T07:56:10;8.70;99.90
2130;DHT22;1071;52.544;13.374;2023-11-21T07:58:57;8.60;99.90
2130;DHT22;1071;52.544;13.374;2023-11-21T08:01:24;8.60;99.90
2130;DHT22;1071;52.544;13.374;2023-11-21T08:03:53;8.60;99.90
2130;DHT22;1071;52.544;13.374;2023-11-21T08:06:23;8.60;99.90
2130;DHT22;1071;52.544;13.374;2023-11-21T08:08:51;8.60;99.90
2130;DHT22;1071;52.544;13.374;2023-11-21T08:11:20;8.50;99.90
2130;DHT22;1071;52.544;13.374;2023-11-21T08:13:47;8.50;99.90
2130;DHT22;1071;52.544;13.374;2023-11-21T08:16:17;8.50;99.90
2130;DHT22;1071;52.544;13.374;2023-11-21T08:18:44;8.50;99.90
2130;DHT22;1071;52.544;13.374;2023-11-21T08:21:12;8.50;99.90
2130;DHT22;1071;52.544;13.374;2023-11-21T08:23:40;8.50;99.90
2130;DHT22;1071;52.544;13.374;2023-11-21T08:26:07;8.50;99.90
2130;DHT22;1071;52.544;13.374;2023-11-21T08:28:34;8.60;99.90
2130;DHT22;1071;52.544;13.374;2023-11-21T08:31:01;8.50;99.90
2130;DHT22;1071;52.544;13.374;2023-11-21T08:33:28;8.50;99.90
2130;DHT22;1071;52.544;13.374;2023-11-21T08:35:55;8.50;99.90
2130;DHT22;1071;52.544;13.374;2023-11-21T08:38:22;8.50;99.90
2130;DHT22;1071;52.544;13.374;2023-11-21T08:41:19;8.50;99.90
2130;DHT22;1071;52.544;13.374;2023-11-21T08:43:50;8.50;99.90
2130;DHT22;1071;52.544;13.374;2023-11-21T08:46:17;8.50;99.90
2130;DHT22;1071;52.544;13.374;2023-11-21T08:48:44;8.50;99.90
2130;DHT22;1071;52.544;13.374;2023-11-21T08:51:12;8.50;99.90
2130;DHT22;1071;52.544;13.374;2023-11-21T08:53:40;8.50;99.90
2130;DHT22;1071;52.544;13.374;2023-11-21T08:56:07;8.50;99.90
2130;DHT22;1071;52.544;13.374;2023-11-21T08:58:37;8.50;99.90
2130;DHT22;1071;52.544;13.374;2023-11-21T09:01:04;8.50;99.90
2130;DHT22;1071;52.544;13.374;2023-11-21T09:03:32;8.50;99.90
2130;DHT22;1071;52.544;13.374;2023-11-21T09:06:00;8.50;99.90
2130;DHT22;1071;52.544;13.374;2023-11-21T09:08:29;8.50;99.90
2130;DHT22;1071;52.544;13.374;2023-11-21T09:10:56;8.50;99.90
2130;DHT22;1071;52.544;13.374;2023-11-21T09:13:23;8.50;99.90
2130;DHT22;1071;52.544;13.374;2023-11-21T09:15:52;8.50;99.90
2130;DHT22;1071;52.544;13.374;2023-11-21T09:18:18;8.50;99.90
2130;DHT22;1071;52.544;13.374;2023-11-21T09:20:45;8.50;99.90
2130;DHT22;1071;52.544;13.374;2023-11-21T09:23:12;8.50;99.90
2130;DHT22;1071;52.544;13.374;2023-11-21T09:25:39;8.50;99.90
2130;DHT22;1071;52.544;13.374;2023-11-21T09:28:06;8.50;99.90
2130;DHT22;1071;52.544;13.374;2023-11-21T09:30:34;8.50;99.90
2130;DHT22;1071;52.544;13.374;2023-11-21T09:33:03;8.50;99.90
2130;DHT22;1071;52.544;13.374;2023-11-21T09:35:33;8.40;99.90
2130;DHT22;1071;52.544;13.374;2023-11-21T09:38:00;8.40;99.90
2130;DHT22;1071;52.544;13.374;2023-11-21T09:40:31;8.30;99.90
2130;DHT22;1071;52.544;13.374;2023-11-21T09:42:58;8.30;99.90
2130;DHT22;1071;52.544;13.374;2023-11-21T09:45:26;8.30;99.90
2130;DHT22;1071;52.544;13.374;2023-11-21T09:47:54;8.30;99.90
2130;DHT22;1071;52.544;13.374;2023-11-21T09:50:24;8.30;99.90
2130;DHT22;1071;52.544;13.374;2023-11-21T09:52:55;8.40;99.90
2130;DHT22;1071;52.544;13.374;2023-11-21T09:55:27;8.40;99.90
2130;DHT22;1071;52.544;13.374;2023-11-21T09:57:56;8.40;99.90
2130;DHT22;1071;52.544;13.374;2023-11-21T10:00:26;8.30;99.90
2130;DHT22;1071;52.544;13.374;2023-11-21T10:02:54;8.30;99.90
2130;DHT22;1071;52.544;13.374;2023-11-21T10:05:24;8.30;99.90
2130;DHT22;1071;52.544;13.374;2023-11-21T10:07:51;8.40;99.90
2130;DHT22;1071;52.544;13.374;2023-11-21T10:10:20;8.40;99.90
2130;DHT22;1071;52.544;13.374;2023-11-21T10:12:50;8.30;99.90
2130;DHT22;1071;52.544;13.374;2023-11-21T10:15:21;8.40;99.90
2130;DHT22;1071;52.544;13.374;2023-11-21T10:17:49;8.40;99.90
2130;DHT22;1071;52.544;13.374;2023-11-21T10:20:19;8.40;99.90
2130;DHT22;1071;52.544;13.374;2023-11-21T10:22:48;8.40;99.90
2130;DHT22;1071;52.544;13.374;2023-11-21T10:25:15;8.30;99.90
2130;DHT22;1071;52.544;13.374;2023-11-21T10:27:47;8.30;99.90
2130;DHT22;1071;52.544;13.374;2023-11-21T10:30:16;8.30;99.90
2130;DHT22;1071;52.544;13.374;2023-11-21T10:32:44;8.30;99.90
2130;DHT22;1071;52.544;13.374;2023-11-21T10:35:15;8.20;99.90
2130;DHT22;1071;52.544;13.374;2023-11-21T10:37:42;8.30;99.90
2130;DHT22;1071;52.544;13.374;2023-11-21T10:40:12;8.20;99.90
2130;DHT22;1071;52.544;13.374;2023-11-21T10:42:39;8.20;99.90
2130;DHT22;1071;52.544;13.374;2023-11-21T10:45:07;8.20;99.90
2130;DHT22;1071;52.544;13.374;2023-11-21T10:47:38;8.20;99.90
2130;DHT22;1071;52.544;13.374;2023-11-21T10:50:06;8.20;99.90
2130;DHT22;1071;52.544;13.374;2023-11-21T10:52:36;8.20;99.90
2130;DHT22;1071;52.544;13.374;2023-11-21T10:55:17;8.20;99.90
2130;DHT22;1071;52.544;13.374;2023-11-21T10:57:49;8.20;99.90
2130;DHT22;1071;52.544;13.374;2023-11-21T11:00:30;8.10;99.90
2130;DHT22;1071;52.544;13.374;2023-11-21T11:02:57;8.10;99.90
2130;DHT22;1071;52.544;13.374;2023-11-21T11:05:26;8.10;99.90
2130;DHT22;1071;52.544;13.374;2023-11-21T11:07:58;8.10;99.90
2130;DHT22;1071;52.544;13.374;2023-11-21T11:10:29;8.10;99.90
2130;DHT22;1071;52.544;13.374;2023-11-21T11:12:56;8.10;99.90
2130;DHT22;1071;52.544;13.374;2023-11-21T11:15:24;8.10;99.90
2130;DHT22;1071;52.544;13.374;2023-11-21T11:17:52;8.10;99.90
2130;DHT22;1071;52.544;13.374;2023-11-21T11:20:23;8.00;99.90
2130;DHT22;1071;52.544;13.374;2023-11-21T11:22:59;8.00;99.90
2130;DHT22;1071;52.544;13.374;2023-11-21T11:25:50;8.00;99.90
2130;DHT22;1071;52.544;13.374;2023-11-21T11:28:27;7.90;99.90
2130;DHT22;1071;52.544;13.374;2023-11-21T11:31:03;8.00;99.90
2130;DHT22;1071;52.544;13.374;2023-11-21T11:33:36;7.90;99.90
2130;DHT22;1071;52.544;13.374;2023-11-21T11:36:08;7.90;99.90
2130;DHT22;1071;52.544;13.374;2023-11-21T11:38:37;7.80;99.90
2130;DHT22;1071;52.544;13.374;2023-11-21T11:41:07;7.90;99.90
2130;DHT22;1071;52.544;13.374;2023-11-21T11:43:35;7.80;99.90
2130;DHT22;1071;52.544;13.374;2023-11-21T11:46:10;7.80;99.90
2130;DHT22;1071;52.544;13.374;2023-11-21T11:48:39;7.80;99.90
2130;DHT22;1071;52.544;13.374;2023-11-21T11:51:11;7.80;99.90
2130;DHT22;1071;52.544;13.374;2023-11-21T11:53:41;7.80;99.90
2130;DHT22;1071;52.544;13.374;2023-11-21T11:56:26;7.80;99.90
2130;DHT22;1071;52.544;13.374;2023-11-21T11:58:55;7.70;99.90
2130;DHT22;1071;52.544;13.374;2023-11-21T12:01:25;7.80;99.90
2130;DHT22;1071;52.544;13.374;2023-11-21T12:04:23;7.80;99.90
2130;DHT22;1071;52.544;13.374;2023-11-21T12:06:56;7.80;99.90
2130;DHT22;1071;52.544;13.374;2023-11-21T12:09:26;7.80;99.90
2130;DHT22;1071;52.544;13.374;2023-11-21T12:11:55;7.80;99.90
2130;DHT22;1071;52.544;13.374;2023-11-21T12:14:23;7.80;99.90
2130;DHT22;1071;52.544;13.374;2023-11-21T12:16:51;7.80;99.90
2130;DHT22;1071;52.544;13.374;2023-11-21T12:19:18;7.90;99.90
2130;DHT22;1071;52.544;13.374;2023-11-21T12:21:48;7.80;99.90
2130;DHT22;1071;52.544;13.374;2023-11-21T12:24:16;7.70;99.90
2130;DHT22;1071;52.544;13.374;2023-11-21T12:26:43;7.80;99.90
2130;DHT22;1071;52.544;13.374;2023-11-21T12:29:12;7.80;99.90
2130;DHT22;1071;52.544;13.374;2023-11-21T12:31:42;7.80;99.90
2130;DHT22;1071;52.544;13.374;2023-11-21T12:34:09;7.70;99.90
2130;DHT22;1071;52.544;13.374;2023-11-21T12:36:37;7.70;99.90
2130;DHT22;1071;52.544;13.374;2023-11-21T12:39:04;7.60;99.90
2130;DHT22;1071;52.544;13.374;2023-11-21T12:41:34;7.60;99.90
2130;DHT22;1071;52.544;13.374;2023-11-21T12:44:01;7.50;99.90
2130;DHT22;1071;52.544;13.374;2023-11-21T12:46:30;7.60;99.90
2130;DHT22;1071;52.544;13.374;2023-11-21T12:49:00;7.50;99.90
2130;DHT22;1071;52.544;13.374;2023-11-21T12:51:27;7.60;99.90
2130;DHT22;1071;52.544;13.374;2023-11-21T12:53:56;7.60;99.90
2130;DHT22;1071;52.544;13.374;2023-11-21T12:56:24;7.70;99.90
2130;DHT22;1071;52.544;13.374;2023-11-21T12:58:53;7.70;99.90
2130;DHT22;1071;52.544;13.374;2023-11-21T13:01:25;7.70;99.90
2130;DHT22;1071;52.544;13.374;2023-11-21T13:03:59;7.70;99.90
2130;DHT22;1071;52.544;13.374;2023-11-21T13:06:27;7.60;99.90
2130;DHT22;1071;52.544;13.374;2023-11-21T13:08:59;7.70;99.90
2130;DHT22;1071;52.544;13.374;2023-11-21T13:11:26;7.60;99.90
2130;DHT22;1071;52.544;13.374;2023-11-21T13:13:57;7.70;99.90
2130;DHT22;1071;52.544;13.374;2023-11-21T13:16:26;7.70;99.90
2130;DHT22;1071;52.544;13.374;2023-11-21T13:18:53;7.60;99.90
2130;DHT22;1071;52.544;13.374;2023-11-21T13:21:24;7.60;99.90
2130;DHT22;1071;52.544;13.374;2023-11-21T13:23:53;7.50;99.90
2130;DHT22;1071;52.544;13.374;2023-11-21T13:26:21;7.50;99.90
2130;DHT22;1071;52.544;13.374;2023-11-21T13:28:49;7.60;99.90
2130;DHT22;1071;52.544;13.374;2023-11-21T13:31:16;7.60;99.90
2130;DHT22;1071;52.544;13.374;2023-11-21T13:33:52;7.50;99.90
2130;DHT22;1071;52.544;13.374;2023-11-21T13:36:25;7.50;99.90
2130;DHT22;1071;52.544;13.374;2023-11-21T13:38:55;7.50;99.90
2130;DHT22;1071;52.544;13.374;2023-11-21T13:41:24;7.50;99.90
2130;DHT22;1071;52.544;13.374;2023-11-21T13:43:56;7.40;99.90
2130;DHT22;1071;52.544;13.374;2023-11-21T13:46:31;7.40;99.90
2130;DHT22;1071;52.544;13.374;2023-11-21T13:49:02;7.50;99.90
2130;DHT22;1071;52.544;13.374;2023-11-21T13:51:33;7.40;99.90
2130;DHT22;1071;52.544;13.374;2023-11-21T13:54:09;7.50;99.90
2130;DHT22;1071;52.544;13.374;2023-11-21T13:56:36;7.50;99.90
2130;DHT22;1071;52.544;13.374;2023-11-21T13:59:05;7.50;99.90
2130;DHT22;1071;52.544;13.374;2023-11-21T14:01:42;7.50;99.90
2130;DHT22;1071;52.544;13.374;2023-11-21T14:04:21;7.40;99.90
2130;DHT22;1071;52.544;13.374;2023-11-21T14:07:02;7.40;99.90
2130;DHT22;1071;52.544;13.374;2023-11-21T14:09:50;7.30;99.90
2130;DHT22;1071;52.544;13.374;2023-11-21T14:12:18;7.30;99.90
2130;DHT22;1071;52.544;13.374;2023-11-21T14:14:45;7.30;99.90
2130;DHT22;1071;52.544;13.374;2023-11-21T14:17:13;7.20;99.90
2130;DHT22;1071;52.544;13.374;2023-11-21T14:19:40;7.20;99.90
2130;DHT22;1071;52.544;13.374;2023-11-21T14:22:10;7.20;99.90
2130;DHT22;1071;52.544;13.374;2023-11-21T14:24:39;7.10;99.90
2130;DHT22;1071;52.544;13.374;2023-11-21T14:27:11;7.10;99.90
2130;DHT22;1071;52.544;13.374;2023-11-21T14:32:32;7.00;99.90
2130;DHT22;1071;52.544;13.374;2023-11-21T14:34:58;7.00;99.90
2130;DHT22;1071;52.544;13.374;2023-11-21T14:37:27;6.90;99.90
2130;DHT22;1071;52.544;13.374;2023-11-21T14:42:47;6.80;99.90
2130;DHT22;1071;52.544;13.374;2023-11-21T14:45:23;6.80;99.90
2130;DHT22;1071;52.544;13.374;2023-11-21T14:47:52;6.80;99.90
2130;DHT22;1071;52.544;13.374;2023-11-21T14:50:28;6.80;99.90
2130;DHT22;1071;52.544;13.374;2023-11-21T14:53:36;6.80;99.90
2130;DHT22;1071;52.544;13.374;2023-11-21T14:56:19;6.80;99.90
2130;DHT22;1071;52.544;13.374;2023-11-21T14:58:52;6.80;99.90
2130;DHT22;1071;52.544;13.374;2023-11-21T15:01:20;6.80;99.90
2130;DHT22;1071;52.544;13.374;2023-11-21T15:03:59;6.80;99.90
2130;DHT22;1071;52.544;13.374;2023-11-21T15:06:31;6.80;99.90
2130;DHT22;1071;52.544;13.374;2023-11-21T15:12:31;6.60;99.90
2130;DHT22;1071;52.544;13.374;2023-11-21T15:15:04;6.50;99.90
2130;DHT22;1071;52.544;13.374;2023-11-21T15:17:35;6.50;99.90
2130;DHT22;1071;52.544;13.374;2023-11-21T15:20:03;6.40;99.90
2130;DHT22;1071;52.544;13.374;2023-11-21T15:22:32;6.40;99.90
2130;DHT22;1071;52.544;13.374;2023-11-21T15:24:59;6.50;99.90
2130;DHT22;1071;52.544;13.374;2023-11-21T15:27:34;6.40;99.90
2130;DHT22;1071;52.544;13.374;2023-11-21T15:30:05;6.50;99.90
2130;DHT22;1071;52.544;13.374;2023-11-21T15:32:32;6.50;99.90
2130;DHT22;1071;52.544;13.374;2023-11-21T15:34:59;6.50;99.90
2130;DHT22;1071;52.544;13.374;2023-11-21T15:37:26;6.50;99.90
2130;DHT22;1071;52.544;13.374;2023-11-21T15:39:54;6.50;99.90
2130;DHT22;1071;52.544;13.374;2023-11-21T15:42:21;6.50;99.90
2130;DHT22;1071;52.544;13.374;2023-11-21T15:44:50;6.50;99.90
2130;DHT22;1071;52.544;13.374;2023-11-21T15:47:17;6.50;99.90
2130;DHT22;1071;52.544;13.374;2023-11-21T15:49:47;6.40;99.90
2130;DHT22;1071;52.544;13.374;2023-11-21T15:52:16;6.40;99.90
2130;DHT22;1071;52.544;13.374;2023-11-21T15:54:44;6.40;99.90
2130;DHT22;1071;52.544;13.374;2023-11-21T15:57:12;6.40;99.90
2130;DHT22;1071;52.544;13.374;2023-11-21T15:59:40;6.40;99.90
2130;DHT22;1071;52.544;13.374;2023-11-21T16:02:09;6.40;99.90
2130;DHT22;1071;52.544;13.374;2023-11-21T16:04:37;6.30;99.90
2130;DHT22;1071;52.544;13.374;2023-11-21T16:07:04;6.30;99.90
2130;DHT22;1071;52.544;13.374;2023-11-21T16:09:32;6.30;99.90
2130;DHT22;1071;52.544;13.374;2023-11-21T16:12:01;6.30;99.90
2130;DHT22;1071;52.544;13.374;2023-11-21T16:14:28;6.30;99.90
2130;DHT22;1071;52.544;13.374;2023-11-21T16:17:01;6.40;99.90
2130;DHT22;1071;52.544;13.374;2023-11-21T16:19:35;6.40;99.90
2130;DHT22;1071;52.544;13.374;2023-11-21T16:22:04;6.40;99.90